FLT555 VNKT-VNLK
Flight info
| Callsign | FLT555 |
|---|---|
| Flight time | 0h 31m |
| Altitude | 150 |
| Route | KIMTI DST VNKL |
| Aircraft | C408/L-VGD/C |
Departure
| Time | 2026-04-26 03:58 |
|---|---|
| Airport | Tribhuvan International Airport (VNKT) |
Arrival
| Time | 2026-04-26 04:29 |
|---|---|
| Airport | Tenzing-Hillary Airport (VNLK) |
| Time | Latitude | Longitude | Altitude | Speed | Heading |
|---|---|---|---|---|---|
| 2026-04-26 03:36 | 27.70534 | 85.36004 | 4384 ft | 0 kts | 247° |
| 2026-04-26 03:51 | 27.70531 | 85.35997 | 4384 ft | 3 kts | 243° |
| 2026-04-26 03:51 | 27.70490 | 85.35997 | 4383 ft | 10 kts | 162° |
| 2026-04-26 03:52 | 27.70413 | 85.36026 | 4370 ft | 13 kts | 162° |
| 2026-04-26 03:52 | 27.70324 | 85.36059 | 4380 ft | 14 kts | 162° |
| 2026-04-26 03:52 | 27.70232 | 85.36055 | 4369 ft | 14 kts | 202° |
| 2026-04-26 03:52 | 27.70135 | 85.36010 | 4368 ft | 16 kts | 202° |
| 2026-04-26 03:53 | 27.70029 | 85.35962 | 4368 ft | 17 kts | 200° |
| 2026-04-26 03:53 | 27.69917 | 85.35914 | 4369 ft | 18 kts | 204° |
| 2026-04-26 03:53 | 27.69801 | 85.35859 | 4360 ft | 18 kts | 200° |
| 2026-04-26 03:53 | 27.69682 | 85.35806 | 4363 ft | 19 kts | 202° |
| 2026-04-26 03:54 | 27.69559 | 85.35751 | 4354 ft | 19 kts | 202° |
| 2026-04-26 03:54 | 27.69433 | 85.35692 | 4357 ft | 20 kts | 201° |
| 2026-04-26 03:54 | 27.69301 | 85.35633 | 4345 ft | 21 kts | 202° |
| 2026-04-26 03:54 | 27.69164 | 85.35570 | 4345 ft | 22 kts | 201° |
| 2026-04-26 03:55 | 27.69103 | 85.35549 | 4343 ft | 4 kts | 170° |
| 2026-04-26 03:55 | 27.69077 | 85.35573 | 4344 ft | 6 kts | 124° |
| 2026-04-26 03:55 | 27.69056 | 85.35614 | 4343 ft | 5 kts | 90° |
| 2026-04-26 03:55 | 27.69067 | 85.35643 | 4342 ft | 2 kts | 47° |
| 2026-04-26 03:56 | 27.69070 | 85.35645 | 4343 ft | 0 kts | 32° |
| 2026-04-26 03:56 | 27.69074 | 85.35647 | 4344 ft | 0 kts | 23° |
| 2026-04-26 03:57 | 27.69079 | 85.35650 | 4345 ft | 10 kts | 23° |
| 2026-04-26 03:57 | 27.69333 | 85.35765 | 4344 ft | 67 kts | 22° |
| 2026-04-26 03:57 | 27.69916 | 85.36029 | 4368 ft | 112 kts | 22° |
| 2026-04-26 03:57 | 27.70718 | 85.36385 | 4581 ft | 129 kts | 22° |
| 2026-04-26 03:58 | 27.71307 | 85.37098 | 4964 ft | 133 kts | 77° |
| 2026-04-26 03:58 | 27.71275 | 85.38144 | 5385 ft | 128 kts | 96° |
| 2026-04-26 03:58 | 27.71179 | 85.39227 | 5526 ft | 149 kts | 95° |
| 2026-04-26 03:58 | 27.71123 | 85.40368 | 6042 ft | 136 kts | 85° |
| 2026-04-26 03:59 | 27.71216 | 85.41454 | 6238 ft | 156 kts | 78° |
| 2026-04-26 03:59 | 27.71522 | 85.42695 | 6257 ft | 168 kts | 76° |
| 2026-04-26 03:59 | 27.71888 | 85.43967 | 6435 ft | 169 kts | 74° |
| 2026-04-26 03:59 | 27.72245 | 85.45243 | 6613 ft | 170 kts | 82° |
| 2026-04-26 04:00 | 27.71991 | 85.46500 | 6760 ft | 169 kts | 126° |
| 2026-04-26 04:00 | 27.71251 | 85.47531 | 6919 ft | 166 kts | 124° |
| 2026-04-26 04:00 | 27.70648 | 85.48634 | 7118 ft | 168 kts | 124° |
| 2026-04-26 04:00 | 27.70023 | 85.49760 | 7343 ft | 171 kts | 122° |
| 2026-04-26 04:01 | 27.69380 | 85.50922 | 7511 ft | 177 kts | 123° |
| 2026-04-26 04:01 | 27.68711 | 85.52105 | 7679 ft | 180 kts | 123° |
| 2026-04-26 04:01 | 27.68045 | 85.53283 | 7857 ft | 181 kts | 123° |
| 2026-04-26 04:01 | 27.67364 | 85.54481 | 8021 ft | 182 kts | 123° |
| 2026-04-26 04:02 | 27.66678 | 85.55692 | 8192 ft | 184 kts | 123° |
| 2026-04-26 04:02 | 27.65986 | 85.56915 | 8362 ft | 185 kts | 123° |
| 2026-04-26 04:02 | 27.65291 | 85.58145 | 8542 ft | 186 kts | 123° |
| 2026-04-26 04:02 | 27.64595 | 85.59379 | 8717 ft | 187 kts | 123° |
| 2026-04-26 04:03 | 27.63897 | 85.60620 | 8876 ft | 187 kts | 123° |
| 2026-04-26 04:03 | 27.63201 | 85.61855 | 9050 ft | 186 kts | 123° |
| 2026-04-26 04:03 | 27.62506 | 85.63087 | 9228 ft | 190 kts | 123° |
| 2026-04-26 04:03 | 27.61794 | 85.64356 | 9393 ft | 191 kts | 123° |
| 2026-04-26 04:04 | 27.61088 | 85.65618 | 9563 ft | 190 kts | 123° |
| 2026-04-26 04:04 | 27.60382 | 85.66873 | 9737 ft | 190 kts | 123° |
| 2026-04-26 04:04 | 27.59677 | 85.68134 | 9913 ft | 191 kts | 123° |
| 2026-04-26 04:04 | 27.58970 | 85.69402 | 10075 ft | 191 kts | 123° |
| 2026-04-26 04:05 | 27.58259 | 85.70683 | 10232 ft | 193 kts | 123° |
| 2026-04-26 04:05 | 27.57551 | 85.71960 | 10391 ft | 192 kts | 123° |
| 2026-04-26 04:05 | 27.56838 | 85.73235 | 10572 ft | 193 kts | 123° |
| 2026-04-26 04:05 | 27.56123 | 85.74521 | 10732 ft | 194 kts | 123° |
| 2026-04-26 04:06 | 27.55407 | 85.75802 | 10894 ft | 193 kts | 123° |
| 2026-04-26 04:06 | 27.54691 | 85.77086 | 11055 ft | 193 kts | 123° |
| 2026-04-26 04:06 | 27.53975 | 85.78374 | 11222 ft | 194 kts | 123° |
| 2026-04-26 04:06 | 27.53264 | 85.79649 | 11384 ft | 195 kts | 123° |
| 2026-04-26 04:07 | 27.52540 | 85.80944 | 11494 ft | 195 kts | 123° |
| 2026-04-26 04:07 | 27.51825 | 85.82227 | 11669 ft | 193 kts | 123° |
| 2026-04-26 04:07 | 27.51108 | 85.83515 | 11834 ft | 195 kts | 123° |
| 2026-04-26 04:07 | 27.50385 | 85.84814 | 12008 ft | 196 kts | 123° |
| 2026-04-26 04:08 | 27.49657 | 85.86118 | 12174 ft | 197 kts | 123° |
| 2026-04-26 04:08 | 27.48930 | 85.87421 | 12343 ft | 196 kts | 123° |
| 2026-04-26 04:08 | 27.48275 | 85.88764 | 12515 ft | 197 kts | 106° |
| 2026-04-26 04:08 | 27.48167 | 85.90296 | 12690 ft | 197 kts | 88° |
| 2026-04-26 04:09 | 27.48195 | 85.91839 | 12864 ft | 196 kts | 87° |
| 2026-04-26 04:09 | 27.48235 | 85.93382 | 13039 ft | 197 kts | 87° |
| 2026-04-26 04:09 | 27.48269 | 85.94898 | 13223 ft | 197 kts | 87° |
| 2026-04-26 04:09 | 27.48307 | 85.96446 | 13401 ft | 197 kts | 87° |
| 2026-04-26 04:10 | 27.48351 | 85.97999 | 13569 ft | 199 kts | 87° |
| 2026-04-26 04:10 | 27.48387 | 85.99554 | 13753 ft | 200 kts | 87° |
| 2026-04-26 04:10 | 27.48423 | 86.01118 | 13921 ft | 200 kts | 87° |
| 2026-04-26 04:10 | 27.48458 | 86.02686 | 14079 ft | 200 kts | 87° |
| 2026-04-26 04:11 | 27.48491 | 86.04231 | 14236 ft | 200 kts | 87° |
| 2026-04-26 04:11 | 27.48527 | 86.05799 | 14396 ft | 200 kts | 87° |
| 2026-04-26 04:11 | 27.48561 | 86.07366 | 14556 ft | 200 kts | 87° |
| 2026-04-26 04:11 | 27.48598 | 86.08934 | 14719 ft | 200 kts | 87° |
| 2026-04-26 04:12 | 27.48636 | 86.10502 | 14884 ft | 199 kts | 87° |
| 2026-04-26 04:12 | 27.48674 | 86.12079 | 14959 ft | 205 kts | 87° |
| 2026-04-26 04:12 | 27.48714 | 86.13675 | 14961 ft | 209 kts | 87° |
| 2026-04-26 04:12 | 27.48758 | 86.15332 | 14965 ft | 213 kts | 87° |
| 2026-04-26 04:13 | 27.48803 | 86.17014 | 14973 ft | 216 kts | 87° |
| 2026-04-26 04:13 | 27.48848 | 86.18711 | 14988 ft | 216 kts | 87° |
| 2026-04-26 04:13 | 27.48892 | 86.20399 | 14995 ft | 215 kts | 87° |
| 2026-04-26 04:13 | 27.48922 | 86.21515 | 14991 ft | 215 kts | 87° |
| 2026-04-26 04:14 | 27.48962 | 86.23191 | 14992 ft | 213 kts | 87° |
| 2026-04-26 04:14 | 27.48868 | 86.24848 | 14982 ft | 213 kts | 101° |
| 2026-04-26 04:14 | 27.48515 | 86.26474 | 14994 ft | 214 kts | 104° |
| 2026-04-26 04:14 | 27.48138 | 86.28105 | 14986 ft | 215 kts | 104° |
| 2026-04-26 04:15 | 27.47764 | 86.29735 | 14991 ft | 215 kts | 104° |
| 2026-04-26 04:15 | 27.47386 | 86.31363 | 14988 ft | 215 kts | 104° |
| 2026-04-26 04:15 | 27.47007 | 86.32993 | 14990 ft | 215 kts | 104° |
| 2026-04-26 04:15 | 27.46631 | 86.34607 | 15018 ft | 216 kts | 104° |
| 2026-04-26 04:16 | 27.46249 | 86.36241 | 15020 ft | 216 kts | 104° |
| 2026-04-26 04:16 | 27.45870 | 86.37871 | 15017 ft | 214 kts | 104° |
| 2026-04-26 04:16 | 27.45497 | 86.39492 | 15014 ft | 213 kts | 104° |
| 2026-04-26 04:16 | 27.45121 | 86.41112 | 15012 ft | 214 kts | 104° |
| 2026-04-26 04:17 | 27.44746 | 86.42723 | 15014 ft | 213 kts | 104° |
| 2026-04-26 04:17 | 27.44370 | 86.44332 | 15013 ft | 201 kts | 104° |
| 2026-04-26 04:17 | 27.44041 | 86.45714 | 14991 ft | 173 kts | 103° |
| 2026-04-26 04:17 | 27.43757 | 86.46929 | 14926 ft | 154 kts | 104° |
| 2026-04-26 04:18 | 27.43478 | 86.48115 | 14671 ft | 153 kts | 104° |
| 2026-04-26 04:18 | 27.43220 | 86.49217 | 14707 ft | 140 kts | 104° |
| 2026-04-26 04:18 | 27.42962 | 86.50313 | 14420 ft | 152 kts | 104° |
| 2026-04-26 04:18 | 27.42694 | 86.51479 | 14195 ft | 156 kts | 105° |
| 2026-04-26 04:19 | 27.42416 | 86.52666 | 14002 ft | 159 kts | 104° |
| 2026-04-26 04:19 | 27.42131 | 86.53879 | 13809 ft | 161 kts | 104° |
| 2026-04-26 04:19 | 27.41845 | 86.55092 | 13599 ft | 162 kts | 104° |
| 2026-04-26 04:19 | 27.41558 | 86.56309 | 13377 ft | 160 kts | 104° |
| 2026-04-26 04:20 | 27.41268 | 86.57528 | 13158 ft | 162 kts | 104° |
| 2026-04-26 04:20 | 27.40967 | 86.58744 | 12926 ft | 160 kts | 105° |
| 2026-04-26 04:20 | 27.40681 | 86.59933 | 12689 ft | 154 kts | 104° |
| 2026-04-26 04:20 | 27.40401 | 86.61091 | 12447 ft | 150 kts | 104° |
| 2026-04-26 04:21 | 27.40152 | 86.62178 | 12202 ft | 139 kts | 101° |
| 2026-04-26 04:21 | 27.40354 | 86.63224 | 11960 ft | 141 kts | 53° |
| 2026-04-26 04:21 | 27.41058 | 86.63916 | 11762 ft | 135 kts | 17° |
| 2026-04-26 04:21 | 27.41922 | 86.64345 | 11589 ft | 136 kts | 16° |
| 2026-04-26 04:22 | 27.42793 | 86.64758 | 11348 ft | 138 kts | 18° |
| 2026-04-26 04:22 | 27.43681 | 86.65179 | 11153 ft | 141 kts | 19° |
| 2026-04-26 04:22 | 27.44620 | 86.65539 | 10902 ft | 143 kts | 15° |
| 2026-04-26 04:22 | 27.45569 | 86.65884 | 10652 ft | 142 kts | 17° |
| 2026-04-26 04:23 | 27.46506 | 86.66248 | 10403 ft | 143 kts | 20° |
| 2026-04-26 04:23 | 27.47429 | 86.66641 | 10143 ft | 143 kts | 19° |
| 2026-04-26 04:23 | 27.48356 | 86.67036 | 9946 ft | 139 kts | 20° |
| 2026-04-26 04:23 | 27.49215 | 86.67398 | 9946 ft | 126 kts | 19° |
| 2026-04-26 04:24 | 27.50023 | 86.67743 | 9942 ft | 122 kts | 19° |
| 2026-04-26 04:24 | 27.50812 | 86.68040 | 9946 ft | 116 kts | 8° |
| 2026-04-26 04:24 | 27.51647 | 86.68239 | 9974 ft | 127 kts | 10° |
| 2026-04-26 04:24 | 27.52521 | 86.68336 | 9991 ft | 133 kts | 2° |
| 2026-04-26 04:25 | 27.53479 | 86.68415 | 9985 ft | 144 kts | 2° |
| 2026-04-26 04:25 | 27.54519 | 86.68494 | 9978 ft | 152 kts | 3° |
| 2026-04-26 04:25 | 27.55575 | 86.68569 | 10013 ft | 153 kts | 2° |
| 2026-04-26 04:25 | 27.56653 | 86.68645 | 10018 ft | 157 kts | 2° |
| 2026-04-26 04:26 | 27.57763 | 86.68736 | 10008 ft | 162 kts | 6° |
| 2026-04-26 04:26 | 27.58884 | 86.68912 | 10010 ft | 163 kts | 7° |
| 2026-04-26 04:26 | 27.60007 | 86.69103 | 10007 ft | 164 kts | 7° |
| 2026-04-26 04:26 | 27.61138 | 86.69297 | 10011 ft | 164 kts | 7° |
| 2026-04-26 04:27 | 27.62251 | 86.69482 | 10021 ft | 164 kts | 7° |
| 2026-04-26 04:27 | 27.63387 | 86.69674 | 9995 ft | 166 kts | 7° |
| 2026-04-26 04:27 | 27.64506 | 86.69854 | 10015 ft | 157 kts | 7° |
| 2026-04-26 04:27 | 27.65524 | 86.70027 | 9982 ft | 141 kts | 7° |
| 2026-04-26 04:28 | 27.66476 | 86.70219 | 9859 ft | 137 kts | 14° |
| 2026-04-26 04:28 | 27.67315 | 86.70728 | 9651 ft | 141 kts | 40° |
| 2026-04-26 04:28 | 27.67962 | 86.71547 | 9346 ft | 134 kts | 55° |
| 2026-04-26 04:28 | 27.68398 | 86.72397 | 9198 ft | 118 kts | 64° |
| 2026-04-26 04:29 | 27.68747 | 86.73079 | 9419 ft | 57 kts | 58° |
| 2026-04-26 04:29 | 27.68794 | 86.73175 | 9433 ft | 0 kts | 65° |
| 2026-04-26 04:29 | 27.68795 | 86.73182 | 9433 ft | 1 kts | 103° |
| 2026-04-26 04:30 | 27.68792 | 86.73186 | 9434 ft | 0 kts | 131° |